createdAt,value
2023-01-30T00:01:36.452Z,12.53
2023-01-30T00:04:24.893Z,14.33
2023-01-30T00:07:55.897Z,13.43
2023-01-30T00:10:45.874Z,13.27
2023-01-30T00:13:34.706Z,14.60
2023-01-30T00:16:23.177Z,12.23
2023-01-30T00:19:11.733Z,12.93
2023-01-30T00:22:00.133Z,13.17
2023-01-30T00:24:48.688Z,12.50
2023-01-30T00:27:38.605Z,12.97
2023-01-30T00:30:27.044Z,12.40
2023-01-30T00:33:15.486Z,12.90
2023-01-30T00:36:04.096Z,13.07
2023-01-30T00:38:52.530Z,12.03
2023-01-30T00:41:58.402Z,11.10
2023-01-30T00:45:05.962Z,11.17
2023-01-30T00:47:54.444Z,11.70
2023-01-30T00:50:45.423Z,11.53
2023-01-30T00:53:34.043Z,11.27
2023-01-30T00:56:22.541Z,11.10
2023-01-30T00:59:11.040Z,11.17
2023-01-30T01:02:00.910Z,11.43
2023-01-30T01:04:49.336Z,11.67
2023-01-30T01:07:37.793Z,11.70
2023-01-30T01:10:26.352Z,12.20
2023-01-30T01:13:14.728Z,10.33
2023-01-30T01:16:03.223Z,12.00
2023-01-30T01:18:53.822Z,11.33
2023-01-30T01:21:42.283Z,12.33
2023-01-30T01:24:30.841Z,11.73
2023-01-30T01:27:19.915Z,11.63
2023-01-30T01:30:09.747Z,11.50
2023-01-30T01:32:58.600Z,11.60
2023-01-30T01:35:48.520Z,11.57
2023-01-30T01:38:37.669Z,11.37
2023-01-30T01:41:25.107Z,11.40
2023-01-30T01:44:17.066Z,11.47
2023-01-30T01:47:05.708Z,10.67
2023-01-30T01:49:54.409Z,11.10
2023-01-30T01:52:44.902Z,10.97
2023-01-30T01:55:33.731Z,11.13
2023-01-30T01:58:29.467Z,10.37
2023-01-30T02:01:18.178Z,10.77
2023-01-30T02:04:10.007Z,10.00
2023-01-30T02:06:58.485Z,10.10
2023-01-30T02:09:48.777Z,8.67
2023-01-30T02:12:37.947Z,9.70
2023-01-30T02:15:26.422Z,9.20
2023-01-30T02:18:16.764Z,9.50
2023-01-30T02:21:39.431Z,9.87
2023-01-30T02:25:01.313Z,9.47
2023-01-30T02:28:24.870Z,8.47
2023-01-30T02:31:26.590Z,8.97
2023-01-30T02:34:31.531Z,10.33
2023-01-30T02:37:29.708Z,10.00
2023-01-30T02:40:31.610Z,9.83
2023-01-30T02:43:29.582Z,9.00
2023-01-30T02:46:24.207Z,9.43
2023-01-30T02:49:18.555Z,9.43
2023-01-30T02:52:09.405Z,9.40
2023-01-30T02:54:57.890Z,8.43
2023-01-30T02:57:46.295Z,9.13
2023-01-30T03:00:49.891Z,9.60
2023-01-30T03:03:51.858Z,9.80
2023-01-30T03:07:04.493Z,9.07
2023-01-30T03:10:02.104Z,9.03
2023-01-30T03:12:54.783Z,8.43
2023-01-30T03:15:47.413Z,8.33
2023-01-30T03:18:35.916Z,7.90
2023-01-30T03:21:25.738Z,8.60
2023-01-30T03:24:14.827Z,8.03
2023-01-30T03:27:07.574Z,9.17
2023-01-30T03:29:56.030Z,8.80
2023-01-30T03:32:44.581Z,8.47
2023-01-30T03:35:33.038Z,8.30
2023-01-30T03:38:22.972Z,8.27
2023-01-30T03:41:11.545Z,8.53
2023-01-30T03:44:00.043Z,8.17
2023-01-30T03:46:48.519Z,8.00
2023-01-30T03:49:36.954Z,7.37
2023-01-30T03:52:25.510Z,8.23
2023-01-30T03:55:15.726Z,8.33
2023-01-30T03:58:04.431Z,7.40
2023-01-30T04:00:53.190Z,7.07
2023-01-30T04:03:42.198Z,8.37
2023-01-30T04:06:30.681Z,7.63
2023-01-30T04:09:19.285Z,7.83
2023-01-30T04:12:09.323Z,6.97
2023-01-30T04:14:57.785Z,6.23
2023-01-30T04:17:47.855Z,7.57
2023-01-30T04:20:36.391Z,7.03
2023-01-30T04:23:24.839Z,6.83
2023-01-30T04:26:14.689Z,7.33
2023-01-30T04:29:04.544Z,7.17
2023-01-30T04:31:52.941Z,6.70
2023-01-30T04:34:42.135Z,5.90
2023-01-30T04:37:30.612Z,7.23
2023-01-30T04:40:19.285Z,8.10
2023-01-30T04:43:07.711Z,6.73
2023-01-30T04:45:58.083Z,7.10
2023-01-30T04:48:46.527Z,7.07
2023-01-30T04:51:35.018Z,7.40
2023-01-30T04:54:23.648Z,6.57
2023-01-30T04:57:12.057Z,7.17
2023-01-30T05:00:00.456Z,7.17
2023-01-30T05:02:50.291Z,7.43
2023-01-30T05:05:38.798Z,6.40
2023-01-30T05:08:27.305Z,7.67
2023-01-30T05:11:15.778Z,7.40
2023-01-30T05:14:04.231Z,6.57
2023-01-30T05:16:52.697Z,7.90
2023-01-30T05:19:42.535Z,6.70
2023-01-30T05:22:31.156Z,6.53
2023-01-30T05:25:19.890Z,6.67
2023-01-30T05:28:08.561Z,6.20
2023-01-30T05:31:01.637Z,6.50
2023-01-30T05:33:52.391Z,6.30
2023-01-30T05:36:42.270Z,6.67
2023-01-30T05:39:30.700Z,6.03
2023-01-30T05:42:19.380Z,5.23
2023-01-30T05:45:09.144Z,6.33
2023-01-30T05:48:01.323Z,5.80
2023-01-30T05:50:52.129Z,5.70
2023-01-30T05:53:41.954Z,7.20
2023-01-30T05:56:33.156Z,7.00
2023-01-30T05:59:21.747Z,6.93
2023-01-30T06:02:11.239Z,6.70
2023-01-30T06:05:00.520Z,6.70
2023-01-30T06:07:48.932Z,6.80
2023-01-30T06:10:38.861Z,7.83
2023-01-30T06:13:27.262Z,7.50
2023-01-30T06:16:17.444Z,7.73
2023-01-30T06:19:05.939Z,6.87
2023-01-30T06:21:54.402Z,7.63
2023-01-30T06:24:42.834Z,8.40
2023-01-30T06:27:32.795Z,7.33
2023-01-30T06:30:21.370Z,8.20
2023-01-30T06:33:10.241Z,6.13
2023-01-30T06:35:58.747Z,7.80
2023-01-30T06:38:48.666Z,8.23
2023-01-30T06:41:37.107Z,7.20
2023-01-30T06:44:26.939Z,7.30
2023-01-30T06:47:15.312Z,7.70
2023-01-30T06:50:03.824Z,7.00
2023-01-30T06:52:53.860Z,7.57
2023-01-30T06:55:42.356Z,6.60
2023-01-30T06:58:30.915Z,7.17
2023-01-30T07:01:21.333Z,7.00
2023-01-30T07:04:09.818Z,6.77
2023-01-30T07:06:58.282Z,6.53
2023-01-30T07:09:53.275Z,5.93
2023-01-30T07:12:50.668Z,6.33
2023-01-30T07:15:39.552Z,5.90
2023-01-30T07:18:29.399Z,5.83
2023-01-30T07:21:17.824Z,5.90
2023-01-30T07:24:06.725Z,6.13
2023-01-30T07:26:55.139Z,6.70
2023-01-30T07:29:43.626Z,6.53
2023-01-30T07:32:32.109Z,6.57
2023-01-30T07:35:23.032Z,6.47
2023-01-30T07:38:11.564Z,6.93
2023-01-30T07:41:00.037Z,6.67
2023-01-30T07:43:50.297Z,6.33
2023-01-30T07:46:38.754Z,6.60
2023-01-30T07:49:27.369Z,7.07
2023-01-30T07:52:17.345Z,13.03
2023-01-30T07:55:06.641Z,10.33
2023-01-30T07:57:55.657Z,9.33
2023-01-30T08:00:44.208Z,8.23
2023-01-30T08:03:32.758Z,8.83
2023-01-30T08:06:21.252Z,10.03
2023-01-30T08:09:11.362Z,10.40
2023-01-30T08:11:59.867Z,8.43
2023-01-30T08:14:48.276Z,7.20
2023-01-30T08:17:36.728Z,6.73
2023-01-30T08:20:25.874Z,6.90
2023-01-30T08:23:14.350Z,6.50
2023-01-30T08:26:06.268Z,6.83
2023-01-30T08:28:55.905Z,7.30
2023-01-30T08:31:44.593Z,6.93
2023-01-30T08:34:33.428Z,7.40
2023-01-30T08:37:21.885Z,6.57
2023-01-30T08:40:12.195Z,7.23
2023-01-30T08:43:02.493Z,7.23
2023-01-30T08:45:51.001Z,6.23
2023-01-30T08:48:49.620Z,6.70
2023-01-30T08:51:38.954Z,8.13
2023-01-30T08:54:27.443Z,7.07
2023-01-30T08:57:04.344Z,7.17
2023-01-30T08:59:54.105Z,6.23
2023-01-30T09:02:42.689Z,6.47
2023-01-30T09:05:31.151Z,6.73
2023-01-30T09:08:19.844Z,6.17
2023-01-30T09:11:08.323Z,6.27
2023-01-30T09:13:57.799Z,6.30
2023-01-30T09:16:48.273Z,5.60
2023-01-30T09:19:37.310Z,5.90
2023-01-30T09:22:28.447Z,8.70
2023-01-30T09:25:17.395Z,7.57
2023-01-30T09:28:06.181Z,10.27
2023-01-30T09:30:54.810Z,8.97
2023-01-30T09:33:44.646Z,7.83
2023-01-30T09:36:33.356Z,8.10
2023-01-30T09:39:21.805Z,8.33
2023-01-30T09:42:37.995Z,8.13
2023-01-30T09:45:44.691Z,8.37
2023-01-30T09:48:39.665Z,7.73
2023-01-30T09:51:46.770Z,8.17
2023-01-30T09:54:37.788Z,8.30
2023-01-30T09:57:27.224Z,9.27
2023-01-30T10:00:23.904Z,9.33
2023-01-30T10:03:14.504Z,8.43
2023-01-30T10:06:06.835Z,8.80
2023-01-30T10:09:03.670Z,9.87
2023-01-30T10:12:03.337Z,9.33
2023-01-30T10:15:14.722Z,10.57
2023-01-30T10:18:38.181Z,10.23
2023-01-30T10:21:39.641Z,9.90
2023-01-30T10:24:43.952Z,9.87
2023-01-30T10:27:33.987Z,11.00
2023-01-30T10:30:22.674Z,9.23
2023-01-30T10:33:20.301Z,9.90
2023-01-30T10:36:11.871Z,9.30
2023-01-30T10:39:02.372Z,9.20
2023-01-30T10:41:56.658Z,9.70
2023-01-30T10:44:45.755Z,9.40
2023-01-30T10:47:48.281Z,9.83
2023-01-30T10:50:49.024Z,8.97
2023-01-30T10:53:43.848Z,8.33
2023-01-30T10:56:41.405Z,9.43
2023-01-30T10:59:43.241Z,10.37
2023-01-30T11:02:42.335Z,9.90
2023-01-30T11:05:41.148Z,9.90
2023-01-30T11:08:31.431Z,10.40
2023-01-30T11:11:28.722Z,9.77
2023-01-30T11:14:17.471Z,10.97
2023-01-30T11:17:07.526Z,9.20
2023-01-30T11:19:57.603Z,10.50
2023-01-30T11:23:01.487Z,11.57
2023-01-30T11:26:05.491Z,11.57
2023-01-30T11:28:58.983Z,10.17
2023-01-30T11:31:52.041Z,11.23
2023-01-30T11:34:44.366Z,11.17
2023-01-30T11:37:34.943Z,10.93
2023-01-30T11:40:31.629Z,11.40
2023-01-30T11:43:20.561Z,10.10
2023-01-30T11:46:12.545Z,11.80
2023-01-30T11:49:33.545Z,11.53
2023-01-30T11:52:14.763Z,12.57
2023-01-30T11:55:07.053Z,11.63
2023-01-30T11:57:59.647Z,13.77
2023-01-30T12:00:50.231Z,12.80
2023-01-30T12:03:45.948Z,14.10
2023-01-30T12:06:36.707Z,15.43
2023-01-30T12:09:35.811Z,15.50
2023-01-30T12:12:33.923Z,15.07
2023-01-30T12:15:26.570Z,16.63
2023-01-30T12:18:21.439Z,16.37
2023-01-30T12:21:22.591Z,15.43
2023-01-30T12:24:21.976Z,15.02
2023-01-30T12:27:20.152Z,12.87
2023-01-30T12:30:18.797Z,15.90
2023-01-30T12:33:13.037Z,16.58
2023-01-30T12:36:14.489Z,16.52
2023-01-30T12:39:25.515Z,15.55
2023-01-30T12:42:40.877Z,17.40
2023-01-30T12:45:31.696Z,16.02
2023-01-30T12:48:44.072Z,18.35
2023-01-30T12:51:58.671Z,13.27
2023-01-30T12:54:58.044Z,15.77
2023-01-30T12:57:54.536Z,15.25
2023-01-30T13:01:02.791Z,16.00
2023-01-30T13:03:59.173Z,17.50
2023-01-30T13:06:59.290Z,16.00
2023-01-30T13:10:01.527Z,17.90
2023-01-30T13:13:00.420Z,17.33
2023-01-30T13:15:58.634Z,17.70
2023-01-30T13:18:52.690Z,17.40
2023-01-30T13:21:46.472Z,15.65
2023-01-30T13:24:48.582Z,17.50
2023-01-30T13:27:40.184Z,18.27
2023-01-30T13:30:32.160Z,16.63
2023-01-30T13:33:23.406Z,18.10
2023-01-30T13:36:17.200Z,19.05
2023-01-30T13:39:10.338Z,16.95
2023-01-30T13:42:00.461Z,18.50
2023-01-30T13:44:50.144Z,21.25
2023-01-30T13:47:49.610Z,17.95
2023-01-30T13:50:57.591Z,15.93
2023-01-30T13:53:50.523Z,17.30
2023-01-30T13:56:43.389Z,16.52
2023-01-30T14:00:03.704Z,17.02
2023-01-30T14:03:23.120Z,16.60
2023-01-30T14:06:33.511Z,15.23
2023-01-30T14:09:27.500Z,16.00
2023-01-30T14:12:20.136Z,15.50
2023-01-30T14:15:28.943Z,17.45
2023-01-30T14:18:26.353Z,14.35
2023-01-30T14:21:17.921Z,17.05
2023-01-30T14:24:07.648Z,15.25
2023-01-30T14:27:04.844Z,15.55
2023-01-30T14:29:55.106Z,17.80
2023-01-30T14:32:55.279Z,19.55
2023-01-30T14:35:45.150Z,17.50
2023-01-30T14:38:34.538Z,15.82
2023-01-30T14:41:30.032Z,16.37
2023-01-30T14:44:51.917Z,19.57
2023-01-30T14:47:45.087Z,18.73
2023-01-30T14:50:36.552Z,20.40
2023-01-30T14:53:26.444Z,20.97
2023-01-30T14:56:15.082Z,18.73
2023-01-30T14:59:06.550Z,20.10
2023-01-30T15:02:05.154Z,19.27
2023-01-30T15:05:03.102Z,17.77
2023-01-30T15:07:56.667Z,18.60
2023-01-30T15:11:04.907Z,20.17
2023-01-30T15:14:07.488Z,19.93
2023-01-30T15:17:10.843Z,21.10
2023-01-30T15:20:21.011Z,20.90
2023-01-30T15:23:27.309Z,20.07
2023-01-30T15:26:28.886Z,21.37
2023-01-30T15:29:46.580Z,20.07
2023-01-30T15:32:35.297Z,20.00
2023-01-30T15:35:29.549Z,18.50
2023-01-30T15:38:27.017Z,20.17
2023-01-30T15:41:15.428Z,19.27
2023-01-30T15:44:22.112Z,19.67
2023-01-30T15:47:39.915Z,20.23
2023-01-30T15:50:28.575Z,20.40
2023-01-30T15:53:18.363Z,21.70
2023-01-30T15:56:10.782Z,20.70
2023-01-30T15:59:01.416Z,22.33
2023-01-30T16:01:59.058Z,23.70
2023-01-30T16:04:49.682Z,20.10
2023-01-30T16:07:38.192Z,21.17
2023-01-30T16:10:28.789Z,23.67
2023-01-30T16:13:19.309Z,20.20
2023-01-30T16:16:14.108Z,20.03
2023-01-30T16:19:06.793Z,20.27
2023-01-30T16:22:00.000Z,20.33
2023-01-30T16:24:51.719Z,19.50
2023-01-30T16:27:40.942Z,20.47
2023-01-30T16:30:31.362Z,20.03
2023-01-30T16:33:19.934Z,22.97
2023-01-30T16:36:28.897Z,22.03
2023-01-30T16:39:31.679Z,20.10
2023-01-30T16:42:26.581Z,23.30
2023-01-30T16:46:02.949Z,23.33
2023-01-30T16:48:52.526Z,23.83
2023-01-30T16:51:41.509Z,21.90
2023-01-30T16:54:33.255Z,21.93
2023-01-30T16:57:31.817Z,22.63
2023-01-30T17:00:23.810Z,23.07
2023-01-30T17:03:23.946Z,23.93
2023-01-30T17:06:22.447Z,23.43
2023-01-30T17:09:37.421Z,21.90
2023-01-30T17:12:39.491Z,24.37
2023-01-30T17:15:36.376Z,22.63
2023-01-30T17:18:24.861Z,22.40
2023-01-30T17:21:15.621Z,24.63
2023-01-30T17:24:06.328Z,23.03
2023-01-30T17:26:59.680Z,23.07
2023-01-30T17:29:49.347Z,23.67
2023-01-30T17:32:38.062Z,25.10
2023-01-30T17:35:26.577Z,23.97
2023-01-30T17:38:15.033Z,29.40
2023-01-30T17:41:03.988Z,26.17
2023-01-30T17:43:53.847Z,27.70
2023-01-30T17:46:45.479Z,22.30
2023-01-30T17:49:34.237Z,23.67
2023-01-30T17:52:22.718Z,25.73
2023-01-30T17:55:13.896Z,25.93
2023-01-30T17:58:02.821Z,26.43
2023-01-30T18:00:52.949Z,25.53
2023-01-30T18:03:42.414Z,29.03
2023-01-30T18:06:32.132Z,25.27
2023-01-30T18:09:22.367Z,28.60
2023-01-30T18:12:10.893Z,24.43
2023-01-30T18:14:59.621Z,26.47
2023-01-30T18:17:50.886Z,29.00
2023-01-30T18:20:39.315Z,24.83
2023-01-30T18:23:27.771Z,44.03
2023-01-30T18:26:16.649Z,35.80
2023-01-30T18:29:05.445Z,30.67
2023-01-30T18:31:53.906Z,27.63
2023-01-30T18:34:43.771Z,30.60
2023-01-30T18:37:32.461Z,26.40
2023-01-30T18:40:21.828Z,30.33
2023-01-30T18:43:10.447Z,29.60
2023-01-30T18:46:06.942Z,31.67
2023-01-30T18:48:57.028Z,27.03
2023-01-30T18:51:46.918Z,26.87
2023-01-30T18:54:37.084Z,30.50
2023-01-30T18:57:25.619Z,31.97
2023-01-30T19:00:16.561Z,29.90
2023-01-30T19:03:05.933Z,28.50
2023-01-30T19:05:55.274Z,28.63
2023-01-30T19:08:45.653Z,25.70
2023-01-30T19:11:51.935Z,45.87
2023-01-30T19:14:40.382Z,26.83
2023-01-30T19:17:29.470Z,30.70
2023-01-30T19:20:20.745Z,28.43
2023-01-30T19:23:10.924Z,40.90
2023-01-30T19:26:01.764Z,33.20
2023-01-30T19:28:50.423Z,30.30
2023-01-30T19:31:39.344Z,29.67
2023-01-30T19:34:28.122Z,28.30
2023-01-30T19:37:18.016Z,27.27
2023-01-30T19:40:09.191Z,31.57
2023-01-30T19:43:05.727Z,28.07
2023-01-30T19:45:59.909Z,24.80
2023-01-30T19:48:49.083Z,30.93
2023-01-30T19:51:37.807Z,31.63
2023-01-30T19:54:26.498Z,28.00
2023-01-30T19:57:15.469Z,29.23
2023-01-30T20:00:06.277Z,27.03
2023-01-30T20:02:55.102Z,26.43
2023-01-30T20:05:44.015Z,27.27
2023-01-30T20:08:33.088Z,26.00
2023-01-30T20:11:22.177Z,25.43
2023-01-30T20:14:11.621Z,25.43
2023-01-30T20:17:01.810Z,26.77
2023-01-30T20:19:50.633Z,25.33
2023-01-30T20:22:39.349Z,28.13
2023-01-30T20:25:28.094Z,27.60
2023-01-30T20:28:17.290Z,24.33
2023-01-30T20:31:09.338Z,26.83
2023-01-30T20:33:59.724Z,26.27
2023-01-30T20:36:48.715Z,26.17
2023-01-30T20:39:37.518Z,24.83
2023-01-30T20:42:26.308Z,25.73
2023-01-30T20:45:14.996Z,25.57
2023-01-30T20:48:03.726Z,24.07
2023-01-30T20:50:53.562Z,25.17
2023-01-30T20:53:47.967Z,26.13
2023-01-30T20:56:38.287Z,25.73
2023-01-30T20:59:28.602Z,24.80
2023-01-30T21:02:17.069Z,24.17
2023-01-30T21:05:06.019Z,25.87
2023-01-30T21:07:56.458Z,26.37
2023-01-30T21:10:47.181Z,28.13
2023-01-30T21:13:36.892Z,26.07
2023-01-30T21:16:27.222Z,25.20
2023-01-30T21:19:17.927Z,25.60
2023-01-30T21:22:09.551Z,26.40
2023-01-30T21:24:59.436Z,25.30
2023-01-30T21:27:47.880Z,25.57
2023-01-30T21:30:37.429Z,25.67
2023-01-30T21:33:26.484Z,25.10
2023-01-30T21:36:17.084Z,24.33
2023-01-30T21:39:22.921Z,24.57
2023-01-30T21:42:29.872Z,25.17
2023-01-30T21:45:20.812Z,24.23
2023-01-30T23:04:22.016Z,20.53
2023-01-30T23:07:13.266Z,23.80
2023-01-30T23:10:01.723Z,21.67
2023-01-30T23:13:08.182Z,20.30
2023-01-30T23:16:00.531Z,19.50
2023-01-30T23:18:58.770Z,20.47
2023-01-30T23:21:48.835Z,19.60
2023-01-30T23:24:37.791Z,19.80
2023-01-30T23:27:26.630Z,18.63
2023-01-30T23:30:15.444Z,17.33
2023-01-30T23:33:03.988Z,17.60
2023-01-30T23:35:52.455Z,19.33
2023-01-30T23:38:42.324Z,19.83
2023-01-30T23:41:33.460Z,17.73
2023-01-30T23:44:22.144Z,18.30
2023-01-30T23:47:10.555Z,18.73
2023-01-30T23:49:58.976Z,18.67
2023-01-30T23:52:47.447Z,17.63
2023-01-30T23:55:37.595Z,18.43
2023-01-30T23:58:26.070Z,18.70
